Everly, Iowa
Current Conditions -  °F | °C
As of 4:34 PM on Monday 24 Nov 2014 (Local Time) from KSPW Reporting Station
Overcast Overcast  
Wind Chill:   Ceiling: 6500
Heat Index: 21°   Visibility: 10mi
Dew Point: 12°   Wind: 23mph
Humidity: 68%   Direction: 310°NW
Pressure: 29.78"   Gusts: 37mph
Location:  43.16°N, 95.33°W
Report Text: KSPW 242234Z AUTO 31020G32KT 10SM SCT024 OVC065 M06/M11 A2978 RMK AO2 PK WND 31033/2212 T10611111 TSNO
Loading
Personal Weather Stations






























Interactive Weather Map New forecast layout! Learn more

10-Day Weather Forecast

Advertisements
Track Severe Weather on mobile